createdAt,value
2022-08-26T00:01:54.377Z,6.40
2022-08-26T00:04:23.654Z,6.28
2022-08-26T00:06:50.940Z,5.72
2022-08-26T00:09:17.762Z,5.87
2022-08-26T00:11:45.563Z,7.15
2022-08-26T00:14:13.641Z,4.97
2022-08-26T00:16:47.782Z,5.70
2022-08-26T00:19:20.671Z,7.35
2022-08-26T00:21:49.684Z,6.57
2022-08-26T00:24:17.559Z,6.18
2022-08-26T00:26:44.171Z,5.15
2022-08-26T00:29:12.244Z,11.90
2022-08-26T00:31:39.085Z,12.00
2022-08-26T00:34:07.102Z,7.23
2022-08-26T00:36:36.108Z,5.18
2022-08-26T00:39:04.559Z,4.93
2022-08-26T00:41:31.099Z,4.97
2022-08-26T00:43:57.663Z,4.70
2022-08-26T00:46:28.836Z,4.73
2022-08-26T00:49:05.473Z,5.78
2022-08-26T00:51:45.430Z,5.38
2022-08-26T00:54:12.883Z,4.63
2022-08-26T00:57:04.810Z,6.63
2022-08-26T00:59:35.750Z,6.73
2022-08-26T01:02:05.979Z,4.70
2022-08-26T01:04:36.347Z,6.47
2022-08-26T01:07:04.643Z,6.72
2022-08-26T01:09:32.233Z,4.60
2022-08-26T01:12:01.609Z,4.60
2022-08-26T01:14:33.861Z,8.45
2022-08-26T01:17:05.823Z,5.40
2022-08-26T01:19:40.830Z,4.78
2022-08-26T01:22:19.345Z,8.10
2022-08-26T01:24:48.241Z,5.93
2022-08-26T01:27:18.806Z,6.22
2022-08-26T01:29:48.754Z,7.13
2022-08-26T01:32:22.057Z,8.27
2022-08-26T01:34:50.256Z,5.30
2022-08-26T01:37:23.592Z,5.50
2022-08-26T01:39:53.811Z,10.57
2022-08-26T01:42:23.769Z,4.72
2022-08-26T01:44:54.089Z,7.22
2022-08-26T01:47:24.261Z,7.15
2022-08-26T01:49:54.506Z,7.67
2022-08-26T01:52:28.058Z,6.78
2022-08-26T01:54:57.410Z,6.70
2022-08-26T01:57:25.189Z,7.13
2022-08-26T01:59:54.590Z,4.40
2022-08-26T02:02:21.814Z,9.70
2022-08-26T02:04:54.404Z,7.97
2022-08-26T02:07:21.791Z,7.45
2022-08-26T02:09:49.158Z,6.47
2022-08-26T02:12:17.933Z,5.75
2022-08-26T02:14:53.590Z,4.83
2022-08-26T02:17:23.614Z,6.72
2022-08-26T02:19:50.640Z,8.27
2022-08-26T02:22:24.498Z,5.15
2022-08-26T02:24:54.778Z,8.45
2022-08-26T02:27:33.193Z,5.77
2022-08-26T02:30:06.641Z,5.95
2022-08-26T02:32:33.245Z,9.00
2022-08-26T02:35:01.532Z,6.38
2022-08-26T02:37:30.484Z,6.20
2022-08-26T02:39:57.188Z,6.93
2022-08-26T02:42:23.922Z,6.50
2022-08-26T02:44:51.845Z,5.90
2022-08-26T02:47:18.484Z,7.07
2022-08-26T02:49:47.328Z,7.32
2022-08-26T02:52:14.531Z,10.53
2022-08-26T02:54:41.075Z,6.47
2022-08-26T02:57:08.519Z,6.57
2022-08-26T02:59:35.994Z,6.43
2022-08-26T03:02:03.209Z,6.45
2022-08-26T03:04:30.405Z,5.97
2022-08-26T03:07:00.184Z,6.03
2022-08-26T03:09:27.052Z,6.50
2022-08-26T03:11:55.284Z,6.00
2022-08-26T03:14:23.903Z,6.65
2022-08-26T03:16:53.875Z,6.67
2022-08-26T03:19:23.145Z,8.18
2022-08-26T03:21:50.125Z,9.85
2022-08-26T03:24:19.781Z,6.97
2022-08-26T03:26:52.975Z,5.25
2022-08-26T03:29:39.281Z,9.53
2022-08-26T03:32:06.223Z,8.23
2022-08-26T03:34:33.186Z,8.88
2022-08-26T03:36:59.888Z,7.28
2022-08-26T03:39:28.729Z,7.57
2022-08-26T03:41:58.814Z,7.70
2022-08-26T03:44:26.625Z,6.70
2022-08-26T03:46:54.463Z,5.68
2022-08-26T03:49:21.697Z,6.53
2022-08-26T03:51:48.308Z,8.07
2022-08-26T03:54:15.296Z,7.07
2022-08-26T03:56:41.799Z,5.82
2022-08-26T03:59:08.545Z,7.45
2022-08-26T04:01:35.489Z,7.15
2022-08-26T04:04:02.385Z,7.80
2022-08-26T04:06:33.009Z,8.17
2022-08-26T04:09:02.302Z,5.32
2022-08-26T04:11:34.318Z,10.38
2022-08-26T04:14:09.842Z,9.80
2022-08-26T04:16:37.097Z,6.28
2022-08-26T04:19:04.052Z,7.90
2022-08-26T04:21:30.732Z,7.28
2022-08-26T04:23:58.272Z,9.15
2022-08-26T04:26:26.041Z,8.73
2022-08-26T04:28:54.426Z,9.00
2022-08-26T04:31:22.125Z,9.47
2022-08-26T04:33:50.037Z,7.30
2022-08-26T04:36:17.446Z,7.40
2022-08-26T04:38:46.488Z,9.48
2022-08-26T04:41:14.832Z,7.55
2022-08-26T04:43:42.676Z,7.67
2022-08-26T04:46:11.406Z,7.82
2022-08-26T04:48:40.938Z,8.55
2022-08-26T04:51:09.069Z,6.82
2022-08-26T04:53:36.978Z,10.43
2022-08-26T04:56:04.751Z,8.63
2022-08-26T04:58:32.335Z,7.15
2022-08-26T05:00:59.501Z,6.40
2022-08-26T05:03:27.295Z,8.25
2022-08-26T05:05:58.241Z,8.18
2022-08-26T05:08:24.955Z,7.20
2022-08-26T05:10:56.410Z,9.35
2022-08-26T05:13:28.926Z,8.25
2022-08-26T05:15:55.723Z,10.07
2022-08-26T05:18:29.925Z,10.05
2022-08-26T05:20:57.359Z,6.53
2022-08-26T05:23:25.025Z,9.27
2022-08-26T05:25:58.889Z,8.93
2022-08-26T05:28:28.510Z,10.10
2022-08-26T05:30:56.094Z,8.50
2022-08-26T05:33:23.083Z,7.80
2022-08-26T05:35:49.644Z,7.47
2022-08-26T05:38:18.437Z,8.20
2022-08-26T05:40:49.129Z,12.35
2022-08-26T05:43:20.470Z,8.73
2022-08-26T05:45:49.139Z,8.63
2022-08-26T05:48:19.099Z,7.85
2022-08-26T05:50:52.844Z,8.15
2022-08-26T05:53:21.209Z,7.50
2022-08-26T05:55:50.847Z,11.80
2022-08-26T05:58:22.378Z,6.90
2022-08-26T06:01:05.674Z,11.77
2022-08-26T06:03:35.651Z,11.65
2022-08-26T06:06:11.075Z,7.85
2022-08-26T06:08:37.880Z,8.52
2022-08-26T06:11:07.245Z,8.30
2022-08-26T06:13:35.044Z,8.70
2022-08-26T06:16:04.844Z,6.82
2022-08-26T06:18:34.857Z,8.13
2022-08-26T06:21:32.593Z,11.23
2022-08-26T06:24:27.176Z,8.60
2022-08-26T06:27:01.075Z,12.45
2022-08-26T06:29:29.962Z,6.57
2022-08-26T06:31:57.939Z,6.55
2022-08-26T06:34:26.591Z,8.65
2022-08-26T06:36:58.495Z,7.43
2022-08-26T06:39:25.497Z,8.40
2022-08-26T06:41:52.108Z,8.80
2022-08-26T06:44:19.136Z,6.32
2022-08-26T06:46:46.297Z,9.70
2022-08-26T06:49:17.609Z,11.27
2022-08-26T06:51:44.398Z,11.98
2022-08-26T06:54:11.378Z,11.57
2022-08-26T06:56:42.605Z,11.52
2022-08-26T06:59:11.185Z,7.18
2022-08-26T07:01:44.203Z,10.60
2022-08-26T07:04:12.357Z,10.90
2022-08-26T07:06:41.056Z,12.75
2022-08-26T07:09:10.458Z,11.63
2022-08-26T07:11:39.007Z,8.43
2022-08-26T07:14:06.698Z,8.97
2022-08-26T07:16:33.827Z,8.68
2022-08-26T07:19:03.339Z,12.23
2022-08-26T07:21:30.327Z,11.05
2022-08-26T07:24:01.514Z,7.93
2022-08-26T07:26:30.227Z,15.43
2022-08-26T07:28:58.281Z,8.95
2022-08-26T07:31:28.187Z,8.40
2022-08-26T07:33:57.131Z,9.30
2022-08-26T07:36:24.700Z,8.23
2022-08-26T07:38:52.663Z,8.10
2022-08-26T07:41:22.669Z,8.57
2022-08-26T07:43:51.504Z,12.77
2022-08-26T07:46:26.950Z,8.15
2022-08-26T07:48:54.714Z,7.40
2022-08-26T07:51:22.710Z,10.80
2022-08-26T07:53:52.827Z,9.93
2022-08-26T07:56:21.218Z,7.95
2022-08-26T07:58:51.600Z,7.97
2022-08-26T08:01:23.711Z,7.28
2022-08-26T08:03:53.709Z,7.80
2022-08-26T08:06:27.195Z,9.57
2022-08-26T08:08:54.629Z,9.63
2022-08-26T08:11:22.111Z,7.10
2022-08-26T08:13:56.124Z,8.23
2022-08-26T08:16:28.483Z,9.60
2022-08-26T08:18:59.285Z,9.45
2022-08-26T08:21:27.867Z,9.38
2022-08-26T08:23:57.227Z,8.85
2022-08-26T08:26:26.068Z,11.07
2022-08-26T08:28:57.367Z,8.57
2022-08-26T08:31:55.911Z,9.23
2022-08-26T08:34:15.047Z,7.20
2022-08-26T08:36:41.848Z,10.57
2022-08-26T08:39:09.316Z,13.55
2022-08-26T08:41:48.456Z,9.43
2022-08-26T08:44:21.225Z,9.95
2022-08-26T08:46:57.718Z,10.32
2022-08-26T08:49:25.833Z,11.80
2022-08-26T08:52:00.847Z,12.65
2022-08-26T08:54:29.055Z,9.87
2022-08-26T08:57:08.331Z,14.10
2022-08-26T08:59:38.893Z,10.02
2022-08-26T09:02:28.791Z,12.77
2022-08-26T09:05:22.957Z,8.15
2022-08-26T09:07:55.679Z,10.10
2022-08-26T09:11:00.350Z,9.68
2022-08-26T09:13:27.939Z,15.68
2022-08-26T09:16:10.103Z,9.13
2022-08-26T09:18:49.017Z,9.75
2022-08-26T09:21:23.275Z,9.50
2022-08-26T09:23:51.449Z,8.68
2022-08-26T09:26:30.652Z,9.50
2022-08-26T09:29:01.082Z,10.10
2022-08-26T09:31:34.030Z,10.95
2022-08-26T09:34:20.942Z,9.93
2022-08-26T09:36:48.702Z,12.43
2022-08-26T09:39:29.060Z,7.40
2022-08-26T09:42:20.550Z,8.40
2022-08-26T09:45:00.411Z,8.07
2022-08-26T09:47:41.354Z,11.07
2022-08-26T09:50:23.382Z,8.25
2022-08-26T09:53:17.316Z,8.07
2022-08-26T09:55:50.505Z,11.13
2022-08-26T09:58:33.536Z,8.68
2022-08-26T10:01:02.185Z,8.23
2022-08-26T10:03:32.996Z,12.25
2022-08-26T10:06:02.181Z,9.27
2022-08-26T10:08:33.170Z,12.95
2022-08-26T10:11:07.330Z,8.43
2022-08-26T10:13:37.894Z,10.47
2022-08-26T10:16:16.234Z,9.45
2022-08-26T10:18:59.477Z,9.00
2022-08-26T10:21:32.827Z,7.88
2022-08-26T10:24:02.490Z,8.32
2022-08-26T10:26:38.293Z,11.30
2022-08-26T10:29:22.905Z,8.50
2022-08-26T10:32:03.617Z,10.10
2022-08-26T10:34:32.286Z,8.82
2022-08-26T10:37:14.865Z,8.25
2022-08-26T10:40:01.856Z,7.93
2022-08-26T10:42:37.420Z,8.68
2022-08-26T10:45:16.755Z,8.68
2022-08-26T10:47:50.174Z,11.02
2022-08-26T10:50:19.005Z,12.85
2022-08-26T10:53:19.687Z,8.40
2022-08-26T10:56:15.907Z,12.45
2022-08-26T10:59:24.192Z,9.73
2022-08-26T11:01:59.225Z,7.30
2022-08-26T11:04:46.958Z,9.63
2022-08-26T11:07:37.201Z,8.40
2022-08-26T11:10:08.794Z,9.05
2022-08-26T11:12:38.597Z,8.23
2022-08-26T11:15:20.077Z,8.43
2022-08-26T11:17:51.354Z,7.60
2022-08-26T11:20:30.999Z,7.20
2022-08-26T11:23:20.369Z,7.85
2022-08-26T11:25:57.062Z,7.32
2022-08-26T11:28:48.519Z,8.35
2022-08-26T11:31:24.408Z,9.60
2022-08-26T11:33:56.873Z,8.53
2022-08-26T11:36:51.559Z,11.88
2022-08-26T11:39:24.300Z,7.60
2022-08-26T11:41:53.902Z,9.40
2022-08-26T11:44:26.279Z,11.38
2022-08-26T11:47:00.821Z,10.70
2022-08-26T11:49:29.442Z,10.02
2022-08-26T11:52:16.826Z,13.75
2022-08-26T11:55:14.266Z,12.13
2022-08-26T11:57:49.310Z,11.73
2022-08-26T12:00:23.942Z,14.87
2022-08-26T12:02:52.563Z,14.18
2022-08-26T12:05:30.966Z,16.08
2022-08-26T12:08:06.286Z,10.90
2022-08-26T12:10:34.390Z,12.32
2022-08-26T12:13:02.416Z,12.07
2022-08-26T12:15:32.021Z,13.27
2022-08-26T12:18:16.837Z,12.23
2022-08-26T12:20:48.162Z,13.07
2022-08-26T12:23:26.886Z,14.75
2022-08-26T12:26:04.306Z,14.27
2022-08-26T12:28:31.266Z,13.10
2022-08-26T12:31:03.513Z,14.57
2022-08-26T12:33:34.561Z,17.25
2022-08-26T12:36:01.991Z,13.02
2022-08-26T12:38:29.798Z,15.07
2022-08-26T12:40:56.992Z,12.38
2022-08-26T12:43:41.605Z,16.00
2022-08-26T12:46:16.129Z,11.38
2022-08-26T12:48:47.443Z,13.45
2022-08-26T12:51:26.537Z,13.43
2022-08-26T12:53:53.957Z,13.02
2022-08-26T12:56:33.715Z,12.90
2022-08-26T12:59:25.017Z,11.85
2022-08-26T13:01:52.672Z,12.30
2022-08-26T13:04:35.844Z,9.93
2022-08-26T13:09:42.292Z,10.13
2022-08-26T13:12:11.564Z,10.63
2022-08-26T13:14:38.382Z,12.07
2022-08-26T13:17:05.012Z,12.87
2022-08-26T13:19:31.576Z,11.38
2022-08-26T13:22:01.292Z,10.75
2022-08-26T13:24:33.916Z,13.00
2022-08-26T13:27:01.637Z,11.20
2022-08-26T13:29:28.673Z,11.27
2022-08-26T13:31:55.940Z,7.68
2022-08-26T13:34:24.497Z,7.43
2022-08-26T13:36:53.319Z,9.18
2022-08-26T13:39:21.233Z,9.43
2022-08-26T13:41:47.896Z,9.53
2022-08-26T13:44:14.689Z,9.27
2022-08-26T13:46:41.721Z,15.68
2022-08-26T13:49:09.227Z,13.18
2022-08-26T13:51:35.911Z,11.07
2022-08-26T13:54:02.437Z,14.53
2022-08-26T13:56:29.812Z,13.65
2022-08-26T13:58:57.966Z,12.65
2022-08-26T14:01:25.523Z,11.57
2022-08-26T14:03:52.349Z,13.88
2022-08-26T14:06:19.430Z,13.47
2022-08-26T14:08:46.158Z,16.13
2022-08-26T14:11:13.035Z,16.70
2022-08-26T14:13:39.671Z,14.45
2022-08-26T14:16:13.664Z,13.23
2022-08-26T14:18:44.402Z,15.70
2022-08-26T14:21:14.426Z,13.15
2022-08-26T14:23:41.381Z,16.33
2022-08-26T14:26:10.749Z,12.27
2022-08-26T14:28:41.713Z,13.65
2022-08-26T14:31:08.711Z,12.27
2022-08-26T14:33:38.097Z,11.88
2022-08-26T14:36:26.868Z,12.48
2022-08-26T14:38:54.458Z,17.58
2022-08-26T14:41:22.107Z,10.98
2022-08-26T14:43:57.821Z,12.50
2022-08-26T14:46:28.730Z,12.43
2022-08-26T14:49:01.833Z,12.35
2022-08-26T14:51:29.145Z,11.10
2022-08-26T14:54:14.534Z,10.52
2022-08-26T14:56:51.153Z,14.13
2022-08-26T14:59:21.714Z,14.70
2022-08-26T15:01:48.320Z,13.60
2022-08-26T15:04:15.721Z,12.65
2022-08-26T15:06:42.437Z,11.85
2022-08-26T15:09:09.295Z,11.67
2022-08-26T15:11:36.267Z,12.20
2022-08-26T15:14:03.059Z,11.80
2022-08-26T15:16:30.350Z,12.15
2022-08-26T15:18:57.045Z,9.68
2022-08-26T15:21:24.550Z,11.23
2022-08-26T15:23:52.591Z,11.85
2022-08-26T15:26:20.648Z,12.73
2022-08-26T15:28:47.464Z,12.02
2022-08-26T15:31:14.219Z,10.40
2022-08-26T15:33:40.882Z,12.20
2022-08-26T15:36:08.541Z,15.10
2022-08-26T15:38:40.232Z,15.48
2022-08-26T15:41:08.546Z,15.52
2022-08-26T15:43:37.090Z,17.05
2022-08-26T15:46:04.745Z,15.23
2022-08-26T15:48:31.404Z,17.50
2022-08-26T15:51:01.376Z,18.05
2022-08-26T15:53:31.217Z,18.02
2022-08-26T15:55:59.338Z,15.20
2022-08-26T15:58:27.412Z,13.30
2022-08-26T16:00:55.588Z,16.92
2022-08-26T16:03:22.571Z,15.98
2022-08-26T16:05:49.224Z,19.40
2022-08-26T16:08:15.962Z,15.23
2022-08-26T16:10:49.393Z,14.90
2022-08-26T16:13:19.960Z,18.20
2022-08-26T16:15:47.831Z,14.45
2022-08-26T16:18:15.733Z,14.18
2022-08-26T16:21:12.822Z,14.95
2022-08-26T16:23:38.785Z,14.90
2022-08-26T16:26:10.551Z,13.98
2022-08-26T16:28:37.639Z,17.33
2022-08-26T16:31:04.888Z,17.58
2022-08-26T16:33:31.571Z,22.50
2022-08-26T16:35:58.616Z,20.03
2022-08-26T16:38:25.160Z,18.23
2022-08-26T16:40:51.684Z,17.15
2022-08-26T16:43:18.254Z,18.45
2022-08-26T16:45:44.815Z,21.08
2022-08-26T16:48:11.448Z,19.83
2022-08-26T16:50:40.494Z,19.55
2022-08-26T16:53:07.231Z,20.17
2022-08-26T16:55:34.639Z,21.85
2022-08-26T16:58:01.247Z,18.08
2022-08-26T17:00:30.354Z,21.00
2022-08-26T17:02:58.808Z,23.35
2022-08-26T17:05:26.382Z,20.20
2022-08-26T17:07:54.146Z,20.98
2022-08-26T17:10:21.877Z,20.73
2022-08-26T17:12:49.335Z,24.83
2022-08-26T17:15:16.877Z,26.55
2022-08-26T17:17:43.799Z,25.80
2022-08-26T17:20:13.561Z,28.42
2022-08-26T17:22:43.693Z,30.48
2022-08-26T17:25:13.449Z,28.47
2022-08-26T17:27:40.806Z,30.20
2022-08-26T17:30:08.030Z,31.80
2022-08-26T17:32:34.956Z,31.98
2022-08-26T17:35:03.022Z,32.17
2022-08-26T17:37:29.599Z,28.80
2022-08-26T17:39:56.171Z,31.17
2022-08-26T17:42:22.726Z,28.65
2022-08-26T17:44:58.300Z,28.98
2022-08-26T17:47:24.955Z,27.98
2022-08-26T17:49:51.489Z,32.10
2022-08-26T17:52:17.994Z,36.50
2022-08-26T17:54:44.570Z,32.17
2022-08-26T17:57:11.121Z,28.20
2022-08-26T17:59:38.613Z,27.50
2022-08-26T18:02:07.531Z,28.47
2022-08-26T18:04:34.285Z,25.75
2022-08-26T18:07:01.392Z,26.67
2022-08-26T18:09:31.209Z,24.15
2022-08-26T18:11:58.906Z,25.60
2022-08-26T18:14:26.525Z,23.47
2022-08-26T18:16:53.399Z,25.00
2022-08-26T18:19:19.931Z,22.83
2022-08-26T18:21:46.614Z,24.25
2022-08-26T18:24:14.260Z,23.38
2022-08-26T18:26:47.855Z,22.47
2022-08-26T18:29:15.786Z,26.63
2022-08-26T18:31:42.922Z,21.60
2022-08-26T18:34:12.803Z,18.45
2022-08-26T18:39:08.123Z,21.70
2022-08-26T18:41:42.506Z,20.83
2022-08-26T18:44:13.424Z,20.90
2022-08-26T18:46:40.534Z,21.65
2022-08-26T18:49:08.228Z,20.65
2022-08-26T18:51:35.162Z,19.97
2022-08-26T18:54:04.399Z,18.88
2022-08-26T18:56:31.713Z,22.60
2022-08-26T18:58:59.741Z,20.70
2022-08-26T19:01:28.603Z,20.15
2022-08-26T19:03:56.898Z,20.13
2022-08-26T19:06:25.167Z,17.87
2022-08-26T19:08:52.743Z,20.30
2022-08-26T19:11:31.129Z,20.08
2022-08-26T19:14:03.245Z,16.52
2022-08-26T19:16:30.425Z,16.83
2022-08-26T19:18:58.859Z,19.63
2022-08-26T19:21:25.597Z,17.48
2022-08-26T19:23:56.808Z,16.13
2022-08-26T19:26:24.247Z,14.90
2022-08-26T19:28:51.053Z,21.05
2022-08-26T19:31:17.742Z,16.13
2022-08-26T19:33:45.418Z,16.70
2022-08-26T19:36:15.809Z,19.67
2022-08-26T19:38:42.877Z,22.52
2022-08-26T19:41:25.527Z,16.55
2022-08-26T19:43:58.871Z,15.50
2022-08-26T19:46:26.506Z,16.17
2022-08-26T19:48:55.703Z,18.67
2022-08-26T19:51:29.066Z,15.65
2022-08-26T19:53:58.233Z,16.23
2022-08-26T19:56:26.506Z,16.97
2022-08-26T19:58:54.333Z,16.35
2022-08-26T20:01:21.888Z,14.88
2022-08-26T20:03:48.846Z,16.02
2022-08-26T20:06:16.623Z,16.00
2022-08-26T20:08:44.217Z,19.10
2022-08-26T20:11:14.738Z,16.45
2022-08-26T20:13:41.891Z,18.17
2022-08-26T20:16:10.335Z,15.15
2022-08-26T20:18:55.578Z,14.63
2022-08-26T20:21:28.333Z,17.30
2022-08-26T20:24:05.115Z,17.20
2022-08-26T20:26:33.324Z,18.02
2022-08-26T20:29:00.309Z,15.73
2022-08-26T20:31:27.681Z,16.52
2022-08-26T20:33:54.854Z,17.93
2022-08-26T20:36:23.622Z,18.77
2022-08-26T20:38:50.333Z,19.23
2022-08-26T20:41:17.714Z,14.05
2022-08-26T20:43:46.970Z,17.73
2022-08-26T20:46:17.921Z,16.83
2022-08-26T20:48:47.046Z,15.48
2022-08-26T20:51:14.076Z,14.52
2022-08-26T20:53:41.318Z,13.77
2022-08-26T20:56:09.560Z,16.80
2022-08-26T20:58:37.405Z,16.70
2022-08-26T21:01:07.813Z,16.35
2022-08-26T21:03:35.782Z,15.52
2022-08-26T21:06:03.554Z,16.70
2022-08-26T21:08:30.408Z,15.18
2022-08-26T21:11:00.149Z,13.37
2022-08-26T21:13:26.865Z,14.85
2022-08-26T21:15:57.741Z,18.00
2022-08-26T21:18:25.142Z,16.15
2022-08-26T21:20:51.749Z,17.20
2022-08-26T21:23:18.671Z,15.90
2022-08-26T21:25:45.881Z,13.80
2022-08-26T21:28:12.770Z,16.92
2022-08-26T21:30:40.457Z,14.50
2022-08-26T21:33:07.791Z,15.65
2022-08-26T21:35:34.398Z,15.17
2022-08-26T21:38:00.945Z,16.02
2022-08-26T21:40:27.751Z,15.60
2022-08-26T21:42:54.417Z,15.27
2022-08-26T21:45:20.986Z,15.63
2022-08-26T21:47:47.522Z,16.60
2022-08-26T21:50:14.123Z,17.88
2022-08-26T21:52:40.778Z,13.90
2022-08-26T21:55:08.810Z,14.50
2022-08-26T21:57:36.390Z,14.70
2022-08-26T22:00:08.220Z,12.53
2022-08-26T22:02:35.054Z,16.25
2022-08-26T22:05:01.651Z,14.30
2022-08-26T22:07:28.277Z,14.43
2022-08-26T22:09:54.839Z,14.73
2022-08-26T22:12:21.389Z,12.57
2022-08-26T22:14:49.208Z,15.68
2022-08-26T22:17:16.814Z,13.32
2022-08-26T22:19:46.255Z,16.20
2022-08-26T22:22:13.957Z,14.25
2022-08-26T22:24:40.518Z,12.43
2022-08-26T22:27:07.059Z,13.27
2022-08-26T22:29:33.717Z,14.68
2022-08-26T22:32:01.308Z,12.50
2022-08-26T22:34:28.010Z,13.52
2022-08-26T22:36:55.213Z,13.43
2022-08-26T22:39:24.129Z,13.05
2022-08-26T22:41:52.267Z,15.93
2022-08-26T22:44:20.491Z,13.80
2022-08-26T22:46:48.360Z,12.55
2022-08-26T22:49:16.381Z,11.70
2022-08-26T22:51:44.577Z,13.70
2022-08-26T22:54:11.591Z,12.80
2022-08-26T22:56:38.688Z,14.05
2022-08-26T22:59:07.742Z,16.23
2022-08-26T23:01:40.242Z,12.80
2022-08-26T23:04:07.828Z,12.55
2022-08-26T23:06:37.020Z,14.23
2022-08-26T23:09:05.356Z,12.13
2022-08-26T23:11:32.259Z,14.57
2022-08-26T23:13:58.873Z,13.33
2022-08-26T23:16:29.000Z,11.48
2022-08-26T23:19:02.861Z,14.82
2022-08-26T23:21:29.409Z,10.98
2022-08-26T23:23:56.282Z,12.88
2022-08-26T23:26:22.934Z,11.37
2022-08-26T23:28:49.427Z,14.05
2022-08-26T23:31:16.237Z,12.63
2022-08-26T23:34:01.515Z,15.90
2022-08-26T23:36:29.748Z,12.93
2022-08-26T23:38:57.353Z,12.43
2022-08-26T23:41:24.425Z,12.60
2022-08-26T23:43:51.645Z,16.45
2022-08-26T23:46:18.738Z,10.95
2022-08-26T23:48:45.281Z,11.18
2022-08-26T23:51:30.517Z,16.60
2022-08-26T23:53:57.866Z,14.15
2022-08-26T23:56:24.397Z,12.43
2022-08-26T23:58:54.384Z,13.85
